Time;durP1;ratioP1;P1;durP2;ratioP2;P2;SDS_P1;SDS_P2;PMS_P1;PMS_P2;Temp;Humidity;BMP_temperature;BMP_pressure;BME280_temperature;BME280_humidity;BME280_pressure;Samples;Min_cycle;Max_cycle;Signal;HPM_P1;HPM_P2
2022/11/04 00:01:31;;;;;;;4.28;1.50;;;9.10;99.90;;;;;;5093804;28;20039;-48
2022/11/04 00:03:57;;;;;;;6.55;2.10;;;9.10;99.90;;;;;;5093557;28;20071;-48
2022/11/04 00:06:23;;;;;;;4.60;1.95;;;9.10;99.90;;;;;;5093569;28;20059;-46
2022/11/04 00:08:53;;;;;;;6.03;2.28;;;9.10;99.90;;;;;;5093457;28;20395;-48
2022/11/04 00:14:05;;;;;;;9.23;2.60;;;9.10;99.90;;;;;;5092416;28;20504;-48
2022/11/04 00:19:15;;;;;;;8.05;2.75;;;9.10;99.90;;;;;;5092865;28;20050;-46
2022/11/04 00:29:58;;;;;;;4.05;1.80;;;9.00;99.90;;;;;;5093522;28;20034;-54
2022/11/04 00:35:10;;;;;;;5.35;1.58;;;9.00;99.90;;;;;;5093515;28;20038;-46
2022/11/04 00:37:40;;;;;;;4.05;1.75;;;9.00;99.90;;;;;;5092909;28;20016;-47
2022/11/04 00:40:08;;;;;;;3.67;1.48;;;9.00;99.90;;;;;;5093153;28;20028;-51
2022/11/04 00:42:33;;;;;;;2.83;1.20;;;9.00;99.90;;;;;;5085950;28;20389;-46
2022/11/04 00:44:59;;;;;;;4.40;1.45;;;9.00;99.90;;;;;;5087910;28;20024;-48
2022/11/04 00:47:25;;;;;;;3.78;1.20;;;8.90;99.90;;;;;;5086516;28;20024;-48
2022/11/04 00:49:51;;;;;;;4.18;1.00;;;9.00;99.90;;;;;;5088405;28;20020;-48
2022/11/04 00:52:17;;;;;;;3.72;0.90;;;9.00;99.90;;;;;;5089460;28;20038;-47
2022/11/04 00:54:42;;;;;;;2.00;0.90;;;9.00;99.90;;;;;;5091898;28;20016;-48
2022/11/04 00:57:09;;;;;;;5.22;0.95;;;8.90;99.90;;;;;;5092083;28;20090;-53
2022/11/04 00:59:35;;;;;;;2.63;0.98;;;9.00;99.90;;;;;;5091988;28;20479;-52
2022/11/04 01:02:01;;;;;;;2.42;1.10;;;8.90;99.90;;;;;;5092001;28;20039;-46
2022/11/04 01:04:26;;;;;;;4.95;1.13;;;9.00;99.90;;;;;;5085250;28;20084;-54
2022/11/04 01:06:52;;;;;;;1.00;0.60;;;9.00;99.90;;;;;;5077509;28;20468;-48
2022/11/04 01:09:18;;;;;;;2.80;0.70;;;8.90;99.90;;;;;;5072651;28;20040;-51
2022/11/04 01:11:43;;;;;;;3.20;0.90;;;9.00;99.90;;;;;;5081368;28;20064;-47
2022/11/04 01:14:09;;;;;;;2.35;0.80;;;9.00;99.90;;;;;;5079006;28;20534;-46
2022/11/04 01:16:35;;;;;;;3.10;0.70;;;9.00;99.90;;;;;;5086136;28;20377;-45
2022/11/04 01:19:01;;;;;;;4.38;0.70;;;8.90;99.90;;;;;;5086463;28;20104;-45
2022/11/04 01:21:27;;;;;;;4.32;1.02;;;9.00;99.90;;;;;;5080426;28;20028;-48
2022/11/04 01:23:52;;;;;;;3.00;0.63;;;9.00;99.90;;;;;;5080833;28;20082;-45
2022/11/04 01:26:21;;;;;;;4.53;0.60;;;9.00;99.90;;;;;;5079205;28;20103;-47
2022/11/04 01:28:47;;;;;;;5.40;0.80;;;9.00;99.90;;;;;;5077566;28;20031;-50
2022/11/04 01:31:15;;;;;;;3.50;1.00;;;9.00;99.90;;;;;;5080018;28;20032;-45
2022/11/04 01:33:41;;;;;;;3.72;0.77;;;9.00;99.90;;;;;;5088892;28;20024;-45
2022/11/04 01:36:07;;;;;;;5.93;0.90;;;9.00;99.90;;;;;;5089376;28;20039;-46
2022/11/04 01:38:33;;;;;;;2.20;0.75;;;9.00;99.90;;;;;;5088148;28;20171;-48
2022/11/04 01:40:59;;;;;;;3.70;0.80;;;9.00;99.90;;;;;;5091516;28;20039;-50
2022/11/04 01:43:44;;;;;;;3.30;1.23;;;9.00;99.90;;;;;;5091377;28;20024;-51
2022/11/04 01:46:16;;;;;;;1.90;0.80;;;9.00;99.90;;;;;;5090820;28;20491;-55
2022/11/04 01:48:42;;;;;;;1.73;0.95;;;9.00;99.90;;;;;;5091114;28;20046;-47
2022/11/04 01:51:07;;;;;;;4.57;1.38;;;9.00;99.90;;;;;;5090961;28;20111;-47
2022/11/04 01:53:38;;;;;;;3.58;1.60;;;8.90;99.90;;;;;;5091080;28;20081;-48
2022/11/04 01:56:11;;;;;;;3.55;1.23;;;8.90;99.90;;;;;;5091197;28;20028;-48
2022/11/04 01:58:43;;;;;;;5.60;1.85;;;9.00;99.90;;;;;;5088422;28;20016;-47
2022/11/04 02:01:10;;;;;;;7.13;2.05;;;8.90;99.90;;;;;;5090191;28;20016;-52
2022/11/04 02:03:39;;;;;;;6.57;2.40;;;8.90;99.90;;;;;;5091489;28;20016;-46
2022/11/04 02:06:05;;;;;;;;;;;8.90;99.90;;;;;;5082890;28;20384;-49
2022/11/04 02:08:31;;;;;;;7.38;2.80;;;8.80;99.90;;;;;;5091283;28;19908;-46
2022/11/04 02:10:59;;;;;;;6.03;2.85;;;8.80;99.90;;;;;;5090194;28;20106;-49
2022/11/04 02:13:30;;;;;;;5.65;2.72;;;8.80;99.90;;;;;;5089218;28;20047;-46
2022/11/04 02:16:08;;;;;;;5.53;2.95;;;8.80;99.90;;;;;;5089346;28;20523;-55
2022/11/04 02:18:52;;;;;;;6.80;2.83;;;8.80;99.90;;;;;;5089020;28;20043;-46
2022/11/04 02:21:44;;;;;;;5.00;2.80;;;8.70;99.90;;;;;;5089141;28;20020;-51
2022/11/04 02:24:37;;;;;;;6.38;3.22;;;8.70;99.90;;;;;;5089398;28;20109;-52
2022/11/04 02:27:15;;;;;;;6.95;2.90;;;8.70;99.90;;;;;;5090866;28;20024;-48
2022/11/04 02:30:09;;;;;;;5.27;2.60;;;8.70;99.90;;;;;;5091118;28;20024;-53
2022/11/04 02:32:40;;;;;;;9.25;2.45;;;8.70;99.90;;;;;;5090992;28;20118;-49
2022/11/04 02:35:18;;;;;;;5.45;2.72;;;8.70;99.90;;;;;;5091052;28;20035;-53
2022/11/04 02:37:59;;;;;;;4.60;2.45;;;8.70;99.90;;;;;;5091007;28;20098;-46
2022/11/04 02:40:43;;;;;;;5.63;2.72;;;8.70;99.90;;;;;;5089681;28;20515;-52
2022/11/04 02:43:25;;;;;;;6.60;2.60;;;8.70;99.90;;;;;;5091019;28;20020;-50
2022/11/04 02:46:23;;;;;;;4.30;2.17;;;8.70;99.90;;;;;;5091014;28;20503;-48
2022/11/04 02:48:58;;;;;;;5.47;2.33;;;8.80;99.90;;;;;;5091463;28;20492;-49
2022/11/04 02:51:41;;;;;;;5.28;2.28;;;8.80;99.90;;;;;;5090856;28;20075;-54
2022/11/04 02:54:13;;;;;;;4.80;2.45;;;8.80;99.90;;;;;;5091666;28;20013;-50
2022/11/04 02:56:45;;;;;;;3.65;2.35;;;8.80;99.90;;;;;;5094834;28;20534;-48
2022/11/04 02:59:18;;;;;;;5.85;2.58;;;8.80;99.90;;;;;;5094833;28;20016;-49
2022/11/04 03:01:45;;;;;;;4.18;2.40;;;8.80;99.90;;;;;;5094882;28;20028;-46
2022/11/04 03:04:16;;;;;;;4.43;2.35;;;8.80;99.90;;;;;;5094812;28;20057;-49
2022/11/04 03:06:44;;;;;;;6.80;2.60;;;8.90;99.90;;;;;;5094559;28;20048;-46
2022/11/04 03:09:13;;;;;;;4.30;2.30;;;8.80;99.90;;;;;;5094577;28;20463;-46
2022/11/04 03:11:43;;;;;;;6.32;2.80;;;8.80;99.90;;;;;;5094438;28;20044;-48
2022/11/04 03:14:17;;;;;;;8.82;2.55;;;8.80;99.90;;;;;;5094693;28;20024;-49
2022/11/04 03:16:49;;;;;;;6.28;3.00;;;8.80;99.90;;;;;;5094457;28;20097;-48
2022/11/04 03:19:38;;;;;;;7.22;2.33;;;8.80;99.90;;;;;;5094594;28;20044;-55
2022/11/04 03:22:11;;;;;;;5.00;2.20;;;8.90;99.90;;;;;;5094243;28;20025;-49
2022/11/04 03:24:38;;;;;;;5.53;2.35;;;8.90;99.90;;;;;;5107100;28;20039;-47
2022/11/04 03:27:29;;;;;;;3.42;2.03;;;8.90;99.90;;;;;;5114575;27;20024;-52
2022/11/04 03:30:08;;;;;;;4.25;1.90;;;8.90;99.90;;;;;;5114554;28;20110;-49
2022/11/04 03:32:42;;;;;;;6.05;2.03;;;8.90;99.90;;;;;;5114425;28;20027;-50
2022/11/04 03:35:09;;;;;;;5.65;1.88;;;8.90;99.90;;;;;;5114867;28;20024;-50
2022/11/04 03:37:35;;;;;;;3.92;1.48;;;8.90;99.90;;;;;;5114841;28;20024;-47
2022/11/04 03:40:02;;;;;;;3.17;1.30;;;8.90;99.90;;;;;;5114582;28;20115;-53
2022/11/04 03:42:30;;;;;;;3.95;1.15;;;8.90;99.90;;;;;;5114637;28;20118;-52
2022/11/04 03:44:56;;;;;;;4.18;1.23;;;8.90;99.90;;;;;;5114448;28;20499;-52
2022/11/04 03:47:25;;;;;;;7.20;1.50;;;8.90;99.90;;;;;;5114608;28;20114;-51
2022/11/04 03:50:07;;;;;;;4.75;1.20;;;8.80;99.90;;;;;;5114314;28;20024;-45
2022/11/04 03:52:34;;;;;;;3.40;1.00;;;8.80;99.90;;;;;;5114411;28;20035;-54
2022/11/04 03:55:00;;;;;;;4.13;1.60;;;8.90;99.90;;;;;;5114225;28;20089;-46
2022/11/04 03:57:35;;;;;;;1.85;0.90;;;8.80;99.90;;;;;;5114154;28;20025;-46
2022/11/04 04:00:09;;;;;;;4.88;1.30;;;8.80;99.90;;;;;;5114524;28;20034;-45
2022/11/04 04:03:20;;;;;;;1.83;0.77;;;8.80;99.90;;;;;;5088158;28;20030;-46
2022/11/04 04:05:53;;;;;;;2.50;0.98;;;8.90;99.90;;;;;;5099375;28;20028;-45
2022/11/04 04:08:28;;;;;;;3.47;1.10;;;8.90;99.90;;;;;;5104981;27;20024;-45
2022/11/04 04:11:15;;;;;;;4.90;1.27;;;8.90;99.90;;;;;;5093228;28;20123;-48
2022/11/04 04:13:52;;;;;;;1.92;1.10;;;8.90;99.90;;;;;;5093077;28;20077;-52
2022/11/04 04:16:20;;;;;;;6.40;1.67;;;8.90;99.90;;;;;;5093290;28;20031;-45
2022/11/04 04:18:53;;;;;;;6.00;2.25;;;8.90;99.90;;;;;;5093144;28;20405;-46
2022/11/04 04:21:23;;;;;;;5.05;2.53;;;8.90;99.90;;;;;;5093659;28;20081;-49
2022/11/04 04:29:22;;;;;;;10.50;4.55;;;9.00;99.90;;;;;;5080695;28;20078;-45
2022/11/04 04:31:48;;;;;;;10.20;5.18;;;8.90;99.90;;;;;;5093150;28;20476;-43
2022/11/04 04:34:25;;;;;;;10.20;5.00;;;8.90;99.90;;;;;;5093183;28;20107;-44
2022/11/04 04:37:10;;;;;;;10.90;4.93;;;8.90;99.90;;;;;;5093135;28;20071;-45
2022/11/04 04:45:38;;;;;;;12.18;6.13;;;8.90;99.90;;;;;;5093461;28;20120;-48
2022/11/04 04:48:05;;;;;;;10.20;5.53;;;8.80;99.90;;;;;;5092822;28;20028;-53
2022/11/04 04:50:41;;;;;;;13.38;6.63;;;8.80;99.90;;;;;;5092801;28;20224;-52
2022/11/04 04:53:07;;;;;;;12.48;5.80;;;8.80;99.90;;;;;;5092882;28;20510;-48
2022/11/04 04:55:32;;;;;;;14.40;6.25;;;8.90;99.90;;;;;;5092754;28;20036;-47
2022/11/04 04:57:58;;;;;;;16.10;6.35;;;8.80;99.90;;;;;;5092403;28;20015;-45
2022/11/04 05:00:24;;;;;;;12.75;5.45;;;8.80;99.90;;;;;;5092654;28;20028;-53
2022/11/04 05:02:50;;;;;;;15.10;6.30;;;8.80;99.90;;;;;;5092400;28;20024;-46
2022/11/04 05:05:16;;;;;;;12.93;6.05;;;8.80;99.90;;;;;;5092549;28;20030;-50
2022/11/04 05:07:42;;;;;;;12.27;5.40;;;8.80;99.90;;;;;;5092330;28;20024;-54
2022/11/04 05:10:10;;;;;;;12.40;5.45;;;8.80;99.90;;;;;;5092412;28;20085;-44
2022/11/04 05:15:21;;;;;;;12.93;4.82;;;8.80;99.90;;;;;;5092676;28;20031;-45
2022/11/04 05:17:47;;;;;;;13.60;4.47;;;8.80;99.90;;;;;;5092168;28;20078;-49
2022/11/04 05:20:13;;;;;;;14.38;5.47;;;8.80;99.90;;;;;;5092022;28;20048;-46
2022/11/04 05:22:39;;;;;;;13.88;4.97;;;8.80;99.90;;;;;;5092351;28;20392;-48
2022/11/04 05:25:05;;;;;;;12.75;5.25;;;8.80;99.90;;;;;;5091890;28;20032;-45
2022/11/04 05:27:30;;;;;;;16.02;4.95;;;8.80;99.90;;;;;;5092364;28;20044;-49
2022/11/04 05:29:56;;;;;;;11.02;4.68;;;8.80;99.90;;;;;;5091915;28;20031;-45
2022/11/04 05:32:22;;;;;;;13.73;4.55;;;8.80;99.90;;;;;;5092121;28;20377;-46
2022/11/04 05:34:47;;;;;;;11.02;4.68;;;8.80;99.90;;;;;;5092028;28;20020;-47
2022/11/04 05:37:13;;;;;;;11.60;3.80;;;8.80;99.90;;;;;;5091886;28;20035;-54
2022/11/04 05:39:38;;;;;;;13.13;4.57;;;8.80;99.90;;;;;;5091870;28;20063;-44
2022/11/04 05:42:04;;;;;;;10.68;4.68;;;8.80;99.90;;;;;;5091759;28;20028;-48
2022/11/04 05:44:30;;;;;;;18.15;4.70;;;8.80;99.90;;;;;;5091953;28;20020;-49
2022/11/04 05:46:55;;;;;;;14.18;5.07;;;8.80;99.90;;;;;;5090353;28;20027;-54
2022/11/04 05:49:21;;;;;;;10.00;4.55;;;8.80;99.90;;;;;;5091944;28;20020;-54
2022/11/04 05:51:46;;;;;;;17.13;5.32;;;8.70;99.90;;;;;;5091523;28;20032;-54
2022/11/04 05:54:12;;;;;;;12.70;5.25;;;8.70;99.90;;;;;;5091413;28;20028;-49
2022/11/04 05:56:38;;;;;;;15.45;5.72;;;8.70;99.90;;;;;;5091984;28;20051;-46
2022/11/04 05:59:03;;;;;;;13.80;5.15;;;8.60;99.90;;;;;;5091450;28;20086;-45
2022/11/04 06:01:35;;;;;;;16.88;5.03;;;8.60;99.90;;;;;;5091811;28;20043;-48
2022/11/04 06:04:02;;;;;;;12.23;5.13;;;8.60;99.90;;;;;;5091366;28;20048;-50
2022/11/04 06:06:30;;;;;;;13.63;4.75;;;8.60;99.90;;;;;;5091482;28;20472;-46
2022/11/04 06:08:57;;;;;;;15.23;5.10;;;8.50;99.90;;;;;;5091807;28;20066;-45
2022/11/04 06:11:23;;;;;;;16.60;4.95;;;8.50;99.90;;;;;;5091056;28;20123;-47
2022/11/04 06:13:49;;;;;;;14.23;5.43;;;8.40;99.90;;;;;;5091423;28;20016;-45
2022/11/04 06:16:15;;;;;;;16.48;4.60;;;8.40;99.90;;;;;;5091066;28;20027;-46
2022/11/04 06:18:40;;;;;;;12.88;4.43;;;8.40;99.90;;;;;;5076850;28;20073;-48
2022/11/04 06:21:12;;;;;;;12.38;5.03;;;8.40;99.90;;;;;;5091178;28;20442;-48
2022/11/04 06:23:38;;;;;;;17.20;4.68;;;8.30;99.90;;;;;;5090905;28;20020;-50
2022/11/04 06:26:04;;;;;;;17.73;5.65;;;8.30;99.90;;;;;;5091319;28;20059;-49
2022/11/04 06:28:30;;;;;;;13.10;4.72;;;8.30;99.90;;;;;;5090407;28;20024;-46
2022/11/04 06:30:58;;;;;;;18.73;6.07;;;8.30;99.90;;;;;;5090919;28;20051;-51
2022/11/04 06:33:24;;;;;;;13.93;4.80;;;8.20;99.90;;;;;;5090888;28;20469;-49
2022/11/04 06:35:49;;;;;;;13.30;4.97;;;8.20;99.90;;;;;;5091030;28;20027;-50
2022/11/04 06:38:15;;;;;;;10.30;4.47;;;8.20;99.90;;;;;;5090878;28;20020;-55
2022/11/04 06:40:40;;;;;;;15.68;4.93;;;8.10;99.90;;;;;;5090822;28;20516;-47
2022/11/04 06:43:06;;;;;;;10.90;4.82;;;8.10;99.90;;;;;;5090931;28;20035;-52
2022/11/04 06:45:32;;;;;;;21.20;5.53;;;8.10;99.90;;;;;;5090708;28;20055;-46
2022/11/04 06:47:57;;;;;;;14.50;4.85;;;8.10;99.90;;;;;;5091017;28;20059;-46
2022/11/04 06:50:23;;;;;;;15.85;6.25;;;8.10;99.90;;;;;;5089292;28;20051;-50
2022/11/04 06:52:48;;;;;;;16.73;7.10;;;8.10;99.90;;;;;;5090877;28;20024;-49
2022/11/04 06:55:14;;;;;;;17.52;6.18;;;8.00;99.90;;;;;;5090558;28;20387;-47
2022/11/04 06:57:39;;;;;;;14.70;6.13;;;8.00;99.90;;;;;;5090626;28;20460;-51
2022/11/04 07:00:06;;;;;;;19.60;6.93;;;8.00;99.90;;;;;;5090823;28;20020;-46
2022/11/04 07:02:31;;;;;;;13.80;5.97;;;8.00;99.90;;;;;;5090337;28;20396;-51
2022/11/04 07:04:57;;;;;;;17.58;6.28;;;7.90;99.90;;;;;;5090530;28;20020;-46
2022/11/04 07:07:22;;;;;;;18.27;6.55;;;7.90;99.90;;;;;;5090600;28;20024;-52
2022/11/04 07:09:48;;;;;;;19.17;5.88;;;7.90;99.90;;;;;;5090369;28;20131;-46
2022/11/04 07:12:14;;;;;;;14.35;5.60;;;7.90;99.90;;;;;;5090514;28;20028;-49
2022/11/04 07:14:39;;;;;;;13.18;5.80;;;7.90;99.90;;;;;;5090339;28;20027;-51
2022/11/04 07:17:05;;;;;;;15.13;6.60;;;7.80;99.90;;;;;;5090225;28;20099;-47
2022/11/04 07:19:30;;;;;;;15.77;7.55;;;7.90;99.90;;;;;;5089042;28;20056;-51
2022/11/04 07:21:56;;;;;;;16.27;6.97;;;7.80;99.90;;;;;;5090353;28;20056;-46
2022/11/04 07:24:22;;;;;;;14.02;6.05;;;7.80;99.90;;;;;;5090497;28;20025;-48
2022/11/04 07:26:48;;;;;;;11.48;5.80;;;7.80;99.90;;;;;;5090189;28;20028;-48
2022/11/04 07:29:13;;;;;;;13.68;6.00;;;7.80;99.90;;;;;;5090710;28;20042;-46
2022/11/04 07:31:39;;;;;;;18.30;6.15;;;7.80;99.90;;;;;;5090116;28;20576;-49
2022/11/04 07:34:05;;;;;;;12.40;5.60;;;7.80;99.90;;;;;;5090243;28;20021;-46
2022/11/04 07:36:31;;;;;;;14.98;6.07;;;7.80;99.90;;;;;;5090142;28;20224;-48
2022/11/04 07:38:56;;;;;;;12.50;6.03;;;7.90;99.90;;;;;;5090371;28;20366;-46
2022/11/04 07:41:22;;;;;;;14.25;5.47;;;7.80;99.90;;;;;;5093219;28;20361;-51
2022/11/04 07:43:50;;;;;;;17.15;6.05;;;7.90;99.90;;;;;;5094140;28;20064;-46
2022/11/04 07:46:16;;;;;;;13.88;5.93;;;7.90;99.90;;;;;;5094359;28;20032;-47
2022/11/04 07:48:42;;;;;;;13.30;5.80;;;7.90;99.90;;;;;;5093742;28;20477;-49
2022/11/04 07:51:10;;;;;;;15.13;6.68;;;8.00;99.90;;;;;;5092902;28;20093;-48
2022/11/04 07:53:35;;;;;;;18.45;6.65;;;8.00;99.90;;;;;;5091939;28;20024;-51
2022/11/04 07:56:06;;;;;;;12.65;6.25;;;8.10;99.90;;;;;;5093297;28;20024;-46
2022/11/04 07:58:32;;;;;;;12.95;5.70;;;8.20;99.90;;;;;;5075475;28;20108;-47
2022/11/04 08:00:59;;;;;;;16.73;6.10;;;8.30;99.90;;;;;;5092101;28;20481;-48
2022/11/04 08:03:25;;;;;;;14.65;5.72;;;8.40;99.90;;;;;;5092436;28;20020;-51
2022/11/04 08:05:59;;;;;;;10.40;5.28;;;8.50;99.90;;;;;;5093607;28;20050;-46
2022/11/04 08:08:25;;;;;;;13.65;5.53;;;8.60;99.90;;;;;;5092856;28;20048;-48
2022/11/04 08:10:55;;;;;;;12.18;5.78;;;8.60;99.90;;;;;;5092548;28;20024;-51
2022/11/04 08:13:22;;;;;;;14.75;5.85;;;8.80;99.90;;;;;;5090692;28;20111;-48
2022/11/04 08:15:48;;;;;;;16.05;5.82;;;9.00;99.90;;;;;;5092685;28;20108;-45
2022/11/04 08:18:13;;;;;;;11.15;5.00;;;9.30;99.90;;;;;;5092782;28;20111;-46
2022/11/04 08:20:39;;;;;;;11.65;5.05;;;9.60;99.90;;;;;;5093092;28;20497;-49
2022/11/04 08:23:05;;;;;;;14.23;4.32;;;10.50;99.90;;;;;;5088504;28;20024;-49
2022/11/04 08:25:30;;;;;;;10.88;3.50;;;12.00;99.90;;;;;;5075410;28;20078;-46
2022/11/04 08:27:56;;;;;;;10.77;3.45;;;13.60;99.90;;;;;;5073603;28;20017;-44
2022/11/04 08:30:21;;;;;;;6.32;3.30;;;14.20;99.90;;;;;;5088880;28;20044;-53
2022/11/04 08:32:47;;;;;;;6.55;2.88;;;15.40;99.90;;;;;;5092205;28;20024;-45
2022/11/04 08:35:13;;;;;;;7.78;2.63;;;16.50;99.90;;;;;;5092318;28;20031;-53
2022/11/04 08:37:38;;;;;;;9.23;3.40;;;16.30;99.90;;;;;;5092039;28;20032;-44
2022/11/04 08:40:05;;;;;;;8.02;3.28;;;15.90;99.90;;;;;;5092237;28;20039;-45
2022/11/04 08:42:31;;;;;;;10.60;3.20;;;15.50;99.90;;;;;;5092602;28;20870;-50
2022/11/04 08:44:57;;;;;;;7.28;2.75;;;15.70;99.90;;;;;;5092730;28;20506;-49
2022/11/04 08:47:23;;;;;;;6.40;2.80;;;16.60;99.90;;;;;;5092116;28;20016;-52
2022/11/04 08:49:48;;;;;;;8.27;3.38;;;17.50;99.90;;;;;;5092528;28;20028;-46
2022/11/04 08:52:14;;;;;;;8.30;3.00;;;18.30;99.90;;;;;;5091227;28;20093;-48
2022/11/04 08:54:40;;;;;;;7.07;2.88;;;16.40;99.90;;;;;;5092157;28;20020;-52
2022/11/04 08:57:05;;;;;;;6.95;3.03;;;18.00;99.90;;;;;;5090538;28;20093;-49
2022/11/04 08:59:31;;;;;;;8.02;2.83;;;18.60;99.90;;;;;;5092051;28;20016;-49
2022/11/04 09:01:56;;;;;;;10.68;3.67;;;19.10;99.60;;;;;;5091941;28;20024;-52
2022/11/04 09:04:22;;;;;;;7.57;3.10;;;19.60;98.80;;;;;;5092364;28;20035;-49
2022/11/04 09:06:49;;;;;;;7.85;3.05;;;19.80;97.10;;;;;;5092423;28;20022;-48
2022/11/04 09:09:18;;;;;;;23.20;3.95;;;18.40;98.10;;;;;;5092133;28;20478;-48
2022/11/04 09:11:45;;;;;;;7.93;3.35;;;17.30;99.40;;;;;;5092007;28;20047;-45
2022/11/04 09:14:11;;;;;;;10.05;3.15;;;16.30;99.90;;;;;;5092136;28;20028;-45
2022/11/04 09:16:38;;;;;;;6.22;3.00;;;16.80;99.90;;;;;;5092218;28;20929;-51
2022/11/04 09:19:04;;;;;;;6.85;3.05;;;18.20;99.90;;;;;;5090803;28;20437;-46
2022/11/04 09:21:30;;;;;;;8.48;2.83;;;19.70;98.40;;;;;;5092123;28;20063;-50
2022/11/04 09:23:56;;;;;;;11.93;3.83;;;21.00;96.70;;;;;;5091414;28;20020;-52
2022/11/04 09:26:22;;;;;;;10.02;3.53;;;22.10;93.10;;;;;;5091596;28;20396;-52
2022/11/04 09:28:56;;;;;;;6.88;2.78;;;22.60;92.70;;;;;;5090559;28;20023;-48
2022/11/04 09:31:23;;;;;;;9.63;3.75;;;23.00;90.60;;;;;;5085406;28;20517;-50
2022/11/04 09:33:49;;;;;;;10.25;3.95;;;23.50;90.10;;;;;;5087536;28;20024;-50
2022/11/04 09:36:15;;;;;;;13.07;4.25;;;24.20;85.90;;;;;;5091527;28;20068;-50
2022/11/04 09:38:42;;;;;;;9.43;3.33;;;24.60;83.60;;;;;;5091355;28;20027;-47
2022/11/04 09:41:18;;;;;;;8.05;3.15;;;24.30;81.30;;;;;;5091289;28;20028;-46
2022/11/04 09:43:50;;;;;;;6.05;2.70;;;25.00;81.30;;;;;;5091074;28;20016;-49
2022/11/04 09:46:17;;;;;;;9.35;3.80;;;25.20;79.00;;;;;;5091098;28;20016;-46
2022/11/04 09:48:50;;;;;;;5.55;2.80;;;25.50;77.40;;;;;;5091249;28;20028;-46
2022/11/04 09:51:20;;;;;;;6.07;2.85;;;24.90;76.00;;;;;;5091089;28;20039;-49
2022/11/04 09:53:49;;;;;;;7.43;2.75;;;24.40;77.10;;;;;;5090762;28;20061;-44
2022/11/04 09:56:21;;;;;;;5.47;2.42;;;25.50;74.60;;;;;;5090648;28;20028;-49
2022/11/04 09:58:48;;;;;;;5.82;2.45;;;25.20;73.90;;;;;;5087660;28;20419;-47
2022/11/04 10:01:35;;;;;;;8.45;2.72;;;25.50;74.40;;;;;;5088742;28;20068;-48
2022/11/04 10:04:18;;;;;;;6.72;2.70;;;26.40;71.50;;;;;;5089778;28;20044;-51
2022/11/04 10:07:13;;;;;;;6.10;2.45;;;26.00;68.00;;;;;;5090850;28;20537;-49
2022/11/04 10:09:47;;;;;;;8.18;2.70;;;26.40;70.10;;;;;;5090405;28;20051;-45
2022/11/04 10:12:34;;;;;;;8.10;2.42;;;26.70;71.20;;;;;;5090458;28;20075;-48
2022/11/04 10:15:15;;;;;;;6.35;2.50;;;27.10;67.90;;;;;;5088051;28;20126;-49
2022/11/04 10:17:46;;;;;;;6.20;2.30;;;27.00;65.00;;;;;;5090913;28;20065;-54
2022/11/04 10:20:41;;;;;;;8.15;2.28;;;27.90;65.10;;;;;;5090538;28;20462;-45
2022/11/04 10:23:21;;;;;;;6.00;1.80;;;27.80;64.80;;;;;;5087593;28;20434;-50
2022/11/04 10:25:57;;;;;;;5.82;2.40;;;28.10;60.70;;;;;;5088931;28;20028;-45
2022/11/04 10:28:31;;;;;;;6.13;2.20;;;28.60;64.40;;;;;;5090327;28;20445;-52
2022/11/04 10:30:59;;;;;;;6.90;2.10;;;28.50;62.30;;;;;;5088244;28;20365;-51
2022/11/04 10:33:34;;;;;;;6.22;2.35;;;28.30;60.50;;;;;;5090418;28;20107;-48
2022/11/04 10:36:06;;;;;;;6.43;1.98;;;27.40;60.60;;;;;;5087771;28;20077;-51
2022/11/04 10:38:40;;;;;;;7.93;2.25;;;27.80;60.10;;;;;;5090593;28;20052;-55
2022/11/04 10:41:33;;;;;;;7.72;2.25;;;28.50;59.50;;;;;;5088574;28;20054;-45
2022/11/04 10:44:20;;;;;;;6.30;1.88;;;28.20;58.50;;;;;;5079738;28;20032;-46
2022/11/04 10:47:25;;;;;;;6.43;2.17;;;27.60;58.90;;;;;;5085594;28;20032;-50
2022/11/04 10:50:00;;;;;;;6.25;2.38;;;28.00;57.50;;;;;;5056376;28;20110;-47
2022/11/04 10:52:25;;;;;;;6.05;2.10;;;28.30;59.20;;;;;;5090019;28;20020;-45
2022/11/04 10:54:51;;;;;;;10.50;1.80;;;28.00;55.20;;;;;;5090283;28;20563;-51
2022/11/04 10:57:21;;;;;;;4.47;1.88;;;27.40;61.50;;;;;;5090297;28;20031;-53
2022/11/04 10:59:55;;;;;;;6.68;2.10;;;27.70;58.30;;;;;;5090544;28;20027;-52
2022/11/04 11:02:35;;;;;;;8.88;2.13;;;28.20;56.10;;;;;;5090237;28;20128;-45
2022/11/04 11:05:16;;;;;;;6.85;2.22;;;28.80;57.20;;;;;;5090505;28;20495;-47
2022/11/04 11:07:50;;;;;;;7.50;1.70;;;27.60;56.70;;;;;;5090519;28;20074;-47
2022/11/04 11:10:25;;;;;;;7.07;2.05;;;28.30;58.30;;;;;;5078730;28;20062;-48
2022/11/04 11:13:03;;;;;;;7.85;2.10;;;27.50;56.50;;;;;;5085983;28;20027;-45
2022/11/04 11:15:35;;;;;;;7.27;2.30;;;28.10;57.30;;;;;;5088682;28;20108;-52
2022/11/04 11:18:07;;;;;;;5.95;2.22;;;29.20;57.20;;;;;;5094308;28;20337;-53
2022/11/04 11:20:36;;;;;;;5.03;2.08;;;28.00;55.90;;;;;;5093936;28;20035;-48
2022/11/04 11:23:08;;;;;;;5.22;1.92;;;28.10;55.80;;;;;;5094373;28;20028;-49
2022/11/04 11:25:47;;;;;;;5.82;1.73;;;28.60;54.70;;;;;;5094256;28;20016;-54
2022/11/04 11:28:24;;;;;;;6.05;2.17;;;28.50;54.30;;;;;;5086028;28;20394;-45
2022/11/04 11:31:07;;;;;;;6.10;2.28;;;28.40;55.00;;;;;;5092700;28;20058;-49
2022/11/04 11:33:35;;;;;;;7.15;2.30;;;26.90;57.50;;;;;;5090116;28;20524;-47
2022/11/04 11:36:11;;;;;;;5.03;1.90;;;26.90;57.10;;;;;;5087583;28;20020;-46
2022/11/04 11:38:50;;;;;;;5.85;1.90;;;27.70;56.90;;;;;;5073759;28;20512;-48
2022/11/04 11:41:22;;;;;;;4.93;1.60;;;27.70;56.40;;;;;;5083794;28;20036;-45
2022/11/04 11:43:53;;;;;;;6.60;2.20;;;28.30;56.80;;;;;;5075005;28;20107;-53
2022/11/04 11:46:23;;;;;;;7.53;1.92;;;28.20;55.10;;;;;;5073131;28;20032;-46
2022/11/04 11:48:59;;;;;;;6.38;2.30;;;28.00;55.00;;;;;;5079238;28;20045;-46
2022/11/04 11:51:36;;;;;;;8.60;1.88;;;27.20;53.90;;;;;;5092268;28;20480;-50
2022/11/04 11:54:27;;;;;;;5.47;1.73;;;26.30;59.10;;;;;;5091965;28;20016;-52
2022/11/04 11:56:58;;;;;;;5.55;1.92;;;26.40;56.70;;;;;;5092112;28;20042;-48
2022/11/04 11:59:36;;;;;;;4.93;2.10;;;25.60;57.80;;;;;;5091201;28;20020;-50
2022/11/04 12:02:30;;;;;;;7.03;2.10;;;26.70;56.90;;;;;;5091881;28;20123;-50
2022/11/04 12:04:56;;;;;;;5.70;2.00;;;26.60;57.00;;;;;;5091007;28;20538;-49
2022/11/04 12:07:27;;;;;;;7.00;2.20;;;26.40;54.70;;;;;;5091653;28;20040;-48
2022/11/04 12:10:08;;;;;;;6.25;2.42;;;26.50;55.70;;;;;;5091380;28;20107;-45
2022/11/04 12:13:06;;;;;;;7.47;2.22;;;26.40;57.00;;;;;;5092099;28;20039;-50
2022/11/04 12:15:39;;;;;;;5.85;2.20;;;26.50;55.90;;;;;;5091676;28;20107;-47
2022/11/04 12:18:39;;;;;;;7.18;2.03;;;26.10;55.60;;;;;;5091665;28;20020;-45
2022/11/04 12:21:20;;;;;;;6.28;2.13;;;24.40;57.40;;;;;;5089406;28;20036;-45
2022/11/04 12:23:52;;;;;;;7.13;2.20;;;23.40;61.70;;;;;;5091635;28;20028;-46
2022/11/04 12:26:28;;;;;;;5.18;2.22;;;21.60;63.40;;;;;;5091540;28;20434;-48
2022/11/04 12:29:26;;;;;;;5.78;2.55;;;21.00;67.70;;;;;;5091663;28;20404;-53
2022/11/04 12:32:09;;;;;;;9.45;2.60;;;20.70;70.50;;;;;;5089292;28;20074;-46
2022/11/04 12:34:46;;;;;;;7.60;2.30;;;20.80;69.50;;;;;;5092375;28;20043;-50
2022/11/04 12:37:44;;;;;;;5.05;2.17;;;20.70;69.80;;;;;;5091794;28;20020;-55
2022/11/04 12:40:33;;;;;;;6.75;2.47;;;20.50;70.40;;;;;;5091699;28;20020;-52
2022/11/04 12:43:18;;;;;;;8.40;2.47;;;20.20;71.80;;;;;;5091505;28;20024;-47
2022/11/04 12:45:55;;;;;;;11.60;2.80;;;20.10;70.00;;;;;;5093711;28;20035;-51
2022/11/04 12:48:27;;;;;;;9.13;2.47;;;20.30;74.60;;;;;;5086141;28;20024;-52
2022/11/04 12:51:04;;;;;;;10.65;3.65;;;20.50;73.80;;;;;;5075982;28;20074;-53
2022/11/04 12:53:41;;;;;;;6.22;2.33;;;20.80;72.30;;;;;;5073720;28;20024;-52
2022/11/04 12:56:18;;;;;;;6.47;2.60;;;20.40;70.30;;;;;;5072502;28;20048;-48
2022/11/04 12:58:58;;;;;;;7.70;2.65;;;19.80;71.10;;;;;;5069567;28;20028;-46
2022/11/04 13:01:37;;;;;;;10.90;3.25;;;19.30;72.90;;;;;;5070480;28;20453;-46
2022/11/04 13:04:10;;;;;;;9.55;3.42;;;19.10;74.10;;;;;;5066861;28;20033;-46
2022/11/04 13:06:55;;;;;;;8.82;3.10;;;19.10;77.70;;;;;;5068421;28;20032;-46
2022/11/04 13:09:58;;;;;;;8.00;3.10;;;18.70;77.50;;;;;;5084010;28;20069;-51
2022/11/04 13:12:30;;;;;;;7.63;3.38;;;18.30;77.10;;;;;;5045173;28;20509;-50
2022/11/04 13:15:01;;;;;;;8.63;3.42;;;17.80;77.10;;;;;;5080165;28;20480;-46
2022/11/04 13:17:36;;;;;;;11.93;4.00;;;17.50;79.30;;;;;;5081949;28;20029;-46
2022/11/04 13:20:12;;;;;;;8.48;3.33;;;17.50;80.80;;;;;;5072372;28;20441;-47
2022/11/04 13:22:42;;;;;;;8.20;3.20;;;17.60;81.40;;;;;;5074334;28;20036;-52
2022/11/04 13:25:17;;;;;;;7.32;3.17;;;17.30;80.60;;;;;;5071972;28;20028;-47
2022/11/04 13:27:45;;;;;;;9.63;3.38;;;17.20;81.00;;;;;;5073124;28;20032;-50
2022/11/04 13:30:28;;;;;;;9.57;3.45;;;16.90;78.10;;;;;;5069190;28;20029;-47
2022/11/04 13:33:12;;;;;;;11.43;3.15;;;16.50;80.20;;;;;;5071573;28;20078;-52
2022/11/04 13:35:53;;;;;;;8.40;2.70;;;16.30;83.70;;;;;;5071261;28;20099;-47
2022/11/04 13:38:24;;;;;;;8.23;2.85;;;16.30;83.20;;;;;;5072755;28;20020;-53
2022/11/04 13:41:38;;;;;;;7.25;2.38;;;16.40;84.70;;;;;;5073462;28;20082;-53
2022/11/04 13:44:28;;;;;;;7.70;2.65;;;16.50;85.10;;;;;;5071879;28;20480;-49